Time;durP1;ratioP1;P1;durP2;ratioP2;P2;SDS_P1;SDS_P2;PMS_P1;PMS_P2;Temp;Humidity;BMP_temperature;BMP_pressure;BME280_temperature;BME280_humidity;BME280_pressure;Samples;Min_cycle;Max_cycle;Signal;HPM_P1;HPM_P2
2022/08/26 00:00:00;;;;;;;12.60;11.30;;;19.60;99.90;;;;;;5035666;28;20266;-75
2022/08/26 00:02:26;;;;;;;17.33;11.65;;;19.50;99.90;;;;;;5041002;28;20164;-76
2022/08/26 00:04:51;;;;;;;18.67;12.88;;;19.40;99.90;;;;;;5044604;28;20205;-75
2022/08/26 00:07:18;;;;;;;17.52;12.13;;;19.40;99.90;;;;;;5039545;28;20575;-74
2022/08/26 00:09:43;;;;;;;16.92;12.70;;;19.40;99.90;;;;;;5047400;28;20183;-74
2022/08/26 00:12:09;;;;;;;13.63;11.90;;;19.40;99.90;;;;;;5040111;28;20188;-74
2022/08/26 00:14:35;;;;;;;15.70;12.65;;;19.50;99.90;;;;;;5047074;28;20705;-74
2022/08/26 00:17:01;;;;;;;17.73;12.65;;;19.40;99.90;;;;;;5034430;28;20230;-74
2022/08/26 00:19:27;;;;;;;20.15;12.48;;;19.40;99.90;;;;;;5028419;28;20176;-74
2022/08/26 00:21:52;;;;;;;14.77;12.43;;;19.40;99.90;;;;;;5033139;28;20191;-75
2022/08/26 00:24:19;;;;;;;18.40;13.13;;;19.40;99.90;;;;;;5043334;28;20169;-74
2022/08/26 00:26:46;;;;;;;16.20;12.98;;;19.40;99.90;;;;;;5032344;28;20179;-74
2022/08/26 00:29:12;;;;;;;17.08;12.38;;;19.40;99.90;;;;;;5037675;28;20654;-75
2022/08/26 00:31:38;;;;;;;13.75;12.35;;;19.40;99.90;;;;;;5028860;28;20172;-75
2022/08/26 00:34:03;;;;;;;16.00;12.45;;;19.40;99.90;;;;;;5031837;28;20550;-75
2022/08/26 00:36:29;;;;;;;16.30;12.18;;;19.50;99.90;;;;;;5032194;28;20595;-75
2022/08/26 00:38:56;;;;;;;15.50;13.70;;;19.50;99.90;;;;;;5029425;28;20747;-75
2022/08/26 00:41:22;;;;;;;16.70;12.60;;;19.50;99.90;;;;;;5031845;28;20259;-74
2022/08/26 00:43:49;;;;;;;16.65;12.10;;;19.60;99.90;;;;;;5032223;28;20251;-74
2022/08/26 00:46:28;;;;;;;17.10;13.38;;;19.50;99.90;;;;;;5034303;28;20288;-75
2022/08/26 00:49:03;;;;;;;15.45;13.23;;;19.40;99.90;;;;;;5032300;28;20200;-74
2022/08/26 00:51:30;;;;;;;18.63;13.70;;;19.30;99.90;;;;;;5031948;28;20176;-74
2022/08/26 00:54:06;;;;;;;15.43;12.73;;;19.30;99.90;;;;;;5026143;28;20188;-74
2022/08/26 00:56:45;;;;;;;18.15;11.63;;;19.20;99.90;;;;;;5025205;28;20172;-75
2022/08/26 00:59:13;;;;;;;16.70;12.40;;;19.20;99.90;;;;;;5037174;28;20195;-74
2022/08/26 01:01:42;;;;;;;14.98;12.15;;;19.20;99.90;;;;;;5041939;28;20164;-74
2022/08/26 01:04:09;;;;;;;19.42;13.20;;;19.20;99.90;;;;;;5038948;28;20175;-74
2022/08/26 01:06:35;;;;;;;16.33;12.18;;;19.10;99.90;;;;;;5033135;28;20271;-75
2022/08/26 01:09:01;;;;;;;14.20;12.57;;;19.20;99.90;;;;;;5032231;28;20291;-75
2022/08/26 01:11:26;;;;;;;15.00;12.35;;;19.20;99.90;;;;;;5032639;28;20208;-75
2022/08/26 01:13:55;;;;;;;15.82;12.95;;;19.20;99.90;;;;;;5040345;28;20221;-75
2022/08/26 01:16:22;;;;;;;15.38;12.32;;;19.20;99.90;;;;;;5030502;28;20203;-75
2022/08/26 01:18:48;;;;;;;14.98;12.10;;;19.20;99.90;;;;;;5039310;28;20195;-75
2022/08/26 01:21:43;;;;;;;18.23;12.88;;;19.20;99.90;;;;;;5037663;28;20726;-75
2022/08/26 01:24:10;;;;;;;21.60;13.13;;;19.10;99.90;;;;;;5031402;28;20287;-75
2022/08/26 01:26:41;;;;;;;16.10;11.70;;;19.00;99.90;;;;;;5030358;28;20215;-75
2022/08/26 01:29:13;;;;;;;15.30;12.35;;;18.90;99.90;;;;;;5030269;28;20670;-74
2022/08/26 01:31:42;;;;;;;17.13;13.27;;;18.90;99.90;;;;;;5033169;28;20172;-74
2022/08/26 01:34:18;;;;;;;16.98;13.52;;;18.90;99.90;;;;;;5040837;28;20218;-75
2022/08/26 01:36:44;;;;;;;21.17;12.98;;;18.80;99.90;;;;;;5030607;28;20188;-74
2022/08/26 01:39:10;;;;;;;19.25;13.10;;;18.70;99.90;;;;;;5042364;28;20191;-75
2022/08/26 01:41:37;;;;;;;20.50;13.30;;;18.70;99.90;;;;;;5041987;28;20561;-74
2022/08/26 01:44:06;;;;;;;19.20;13.02;;;18.70;99.90;;;;;;5039369;28;20179;-74
2022/08/26 01:46:32;;;;;;;19.63;13.23;;;18.80;99.90;;;;;;5033487;28;20184;-74
2022/08/26 01:49:03;;;;;;;17.30;13.23;;;18.80;99.90;;;;;;5041012;28;20208;-74
2022/08/26 01:51:30;;;;;;;18.08;14.63;;;18.80;99.90;;;;;;5036949;28;20199;-74
2022/08/26 01:53:56;;;;;;;18.15;14.00;;;18.80;99.90;;;;;;5039213;28;20212;-74
2022/08/26 01:56:23;;;;;;;16.83;13.27;;;18.70;99.90;;;;;;5019144;28;20287;-74
2022/08/26 01:58:52;;;;;;;17.23;13.57;;;18.70;99.90;;;;;;5033270;28;20196;-74
2022/08/26 02:01:19;;;;;;;21.02;13.93;;;18.80;99.90;;;;;;5036403;28;20201;-74
2022/08/26 02:04:09;;;;;;;14.95;13.35;;;18.80;99.90;;;;;;5039858;28;20176;-74
2022/08/26 02:06:37;;;;;;;15.77;13.40;;;18.80;99.90;;;;;;5037622;28;20183;-74
2022/08/26 02:09:04;;;;;;;17.60;13.23;;;18.80;99.90;;;;;;5039971;28;20202;-75
2022/08/26 02:11:31;;;;;;;19.63;13.73;;;18.80;99.90;;;;;;5042737;28;20682;-75
2022/08/26 02:14:02;;;;;;;17.48;13.27;;;18.90;99.90;;;;;;5037707;28;20195;-74
2022/08/26 02:16:32;;;;;;;17.25;13.23;;;18.80;99.90;;;;;;5038259;28;20204;-74
2022/08/26 02:19:00;;;;;;;15.88;13.23;;;18.80;99.90;;;;;;5041547;28;20743;-74
2022/08/26 02:21:26;;;;;;;16.00;14.18;;;18.80;99.90;;;;;;5037800;28;20177;-74
2022/08/26 02:23:52;;;;;;;21.55;14.48;;;18.80;99.90;;;;;;5044257;28;20202;-75
2022/08/26 02:26:21;;;;;;;15.85;12.82;;;18.80;99.90;;;;;;5039345;28;20602;-74
2022/08/26 02:29:00;;;;;;;16.48;14.43;;;18.70;99.90;;;;;;5043175;28;20220;-74
2022/08/26 02:31:26;;;;;;;23.17;14.52;;;18.70;99.90;;;;;;5035005;28;20654;-74
2022/08/26 02:33:52;;;;;;;17.45;13.77;;;18.70;99.90;;;;;;5044817;28;20195;-74
2022/08/26 02:36:20;;;;;;;14.82;13.27;;;18.70;99.90;;;;;;5046194;28;20196;-74
2022/08/26 02:38:45;;;;;;;19.85;14.43;;;18.70;99.90;;;;;;5042044;28;20208;-75
2022/08/26 02:41:11;;;;;;;15.68;13.80;;;18.70;99.90;;;;;;5046001;28;20175;-75
2022/08/26 02:43:37;;;;;;;16.83;13.20;;;18.70;99.90;;;;;;5045741;28;20172;-74
2022/08/26 02:46:02;;;;;;;14.70;12.27;;;18.70;99.90;;;;;;5044537;28;20183;-75
2022/08/26 02:48:29;;;;;;;15.00;13.50;;;18.70;99.90;;;;;;5045328;28;20294;-74
2022/08/26 02:50:55;;;;;;;18.30;13.05;;;18.70;99.90;;;;;;5044852;28;20433;-74
2022/08/26 02:53:20;;;;;;;16.42;12.43;;;18.80;99.90;;;;;;5045887;28;20176;-74
2022/08/26 02:55:48;;;;;;;15.07;12.20;;;18.80;99.90;;;;;;5042276;28;20413;-74
2022/08/26 02:58:14;;;;;;;15.45;12.63;;;18.90;99.90;;;;;;5033750;28;20267;-74
2022/08/26 03:00:40;;;;;;;19.88;12.82;;;19.00;99.90;;;;;;5045374;28;20164;-74
2022/08/26 03:03:06;;;;;;;17.77;14.40;;;18.90;99.90;;;;;;5044776;28;20268;-75
2022/08/26 03:05:33;;;;;;;15.77;13.70;;;18.80;99.90;;;;;;5042165;28;20597;-75
2022/08/26 03:07:59;;;;;;;16.98;12.82;;;18.80;99.90;;;;;;5031796;28;20295;-75
2022/08/26 03:10:24;;;;;;;16.80;12.10;;;18.70;99.90;;;;;;5033504;28;20259;-75
2022/08/26 03:12:50;;;;;;;15.07;13.20;;;18.70;99.90;;;;;;5040799;28;20563;-75
2022/08/26 03:15:17;;;;;;;17.10;13.45;;;18.70;99.90;;;;;;5044205;28;20246;-75
2022/08/26 03:17:43;;;;;;;14.25;12.45;;;18.80;99.90;;;;;;5036652;28;20538;-75
2022/08/26 03:20:10;;;;;;;18.77;13.05;;;18.70;99.90;;;;;;5044674;28;20221;-75
2022/08/26 03:22:37;;;;;;;14.75;12.32;;;18.60;99.90;;;;;;5045248;28;20271;-76
2022/08/26 03:25:05;;;;;;;15.40;13.02;;;18.60;99.90;;;;;;5040432;28;20271;-76
2022/08/26 03:27:30;;;;;;;14.10;12.63;;;18.60;99.90;;;;;;5038093;28;20257;-75
2022/08/26 03:32:41;;;;;;;14.25;12.25;;;18.60;99.90;;;;;;5045733;28;20252;-75
2022/08/26 03:35:07;;;;;;;15.82;13.38;;;18.60;99.90;;;;;;5026876;28;20698;-75
2022/08/26 03:37:32;;;;;;;13.88;12.30;;;18.60;99.90;;;;;;5027499;28;20675;-75
2022/08/26 03:39:58;;;;;;;15.73;13.13;;;18.50;99.90;;;;;;5026865;28;20177;-76
2022/08/26 03:42:24;;;;;;;17.40;12.43;;;18.50;99.90;;;;;;5029439;28;20236;-75
2022/08/26 03:44:50;;;;;;;16.35;13.23;;;18.60;99.90;;;;;;5022170;28;20188;-75
2022/08/26 03:47:16;;;;;;;19.58;13.65;;;18.50;99.90;;;;;;5031576;28;20196;-75
2022/08/26 03:49:41;;;;;;;16.33;13.25;;;18.50;99.90;;;;;;5032779;28;20588;-75
2022/08/26 03:52:07;;;;;;;17.65;13.23;;;18.50;99.90;;;;;;5030589;28;20189;-74
2022/08/26 03:54:33;;;;;;;16.92;13.27;;;18.60;99.90;;;;;;5037307;28;20210;-75
2022/08/26 03:56:59;;;;;;;21.20;14.15;;;18.60;99.90;;;;;;5042131;28;20243;-75
2022/08/26 03:59:25;;;;;;;17.95;14.15;;;18.60;99.90;;;;;;5032471;28;20686;-75
2022/08/26 04:01:51;;;;;;;18.02;13.88;;;18.70;99.90;;;;;;5036741;28;20177;-75
2022/08/26 04:04:17;;;;;;;22.30;13.85;;;18.70;99.90;;;;;;5043086;28;20195;-75
2022/08/26 04:06:43;;;;;;;19.20;13.70;;;18.60;99.90;;;;;;5044488;28;20183;-75
2022/08/26 04:09:16;;;;;;;22.02;13.48;;;18.70;99.90;;;;;;5038641;28;20203;-75
2022/08/26 04:11:43;;;;;;;17.25;13.93;;;18.70;99.90;;;;;;5021367;28;20598;-75
2022/08/26 04:14:15;;;;;;;20.77;13.95;;;18.70;99.90;;;;;;5039676;28;20195;-75
2022/08/26 04:16:42;;;;;;;16.85;14.35;;;18.70;99.90;;;;;;5029743;28;20180;-75
2022/08/26 04:19:10;;;;;;;18.40;14.10;;;18.70;99.90;;;;;;5023185;28;20712;-76
2022/08/26 04:21:37;;;;;;;17.40;12.98;;;18.80;99.90;;;;;;5027184;28;20191;-76
2022/08/26 04:24:06;;;;;;;19.65;13.02;;;18.90;99.90;;;;;;5024916;28;20181;-76
2022/08/26 04:26:36;;;;;;;14.90;12.73;;;19.00;99.90;;;;;;5026439;28;20247;-76
2022/08/26 04:29:08;;;;;;;18.60;14.20;;;19.00;99.90;;;;;;5029734;28;20683;-77
2022/08/26 04:31:35;;;;;;;17.63;13.15;;;19.00;99.90;;;;;;5026044;28;20672;-76
2022/08/26 04:34:02;;;;;;;16.40;12.73;;;19.00;99.90;;;;;;5030407;28;20177;-77
2022/08/26 04:36:27;;;;;;;15.20;12.55;;;19.00;99.90;;;;;;5032542;28;20231;-76
2022/08/26 04:38:54;;;;;;;14.50;13.07;;;19.00;99.90;;;;;;5037350;28;20251;-76
2022/08/26 04:41:20;;;;;;;14.18;12.70;;;19.00;99.90;;;;;;5036322;28;20662;-75
2022/08/26 04:43:47;;;;;;;17.17;13.05;;;19.00;99.90;;;;;;5043262;28;20185;-76
2022/08/26 04:46:20;;;;;;;16.45;12.85;;;19.00;99.90;;;;;;5030937;28;20604;-76
2022/08/26 04:48:47;;;;;;;15.23;12.90;;;19.10;99.90;;;;;;5028495;28;20622;-76
2022/08/26 04:51:13;;;;;;;14.40;12.32;;;19.20;99.90;;;;;;5024753;28;20269;-83
2022/08/26 04:53:39;;;;;;;16.02;11.82;;;19.30;99.90;;;;;;5041565;28;20173;-82
2022/08/26 04:56:04;;;;;;;18.83;13.02;;;19.40;99.90;;;;;;5047328;28;20564;-82
2022/08/26 04:58:30;;;;;;;19.05;12.52;;;19.40;99.90;;;;;;5048432;28;20201;-83
2022/08/26 05:00:57;;;;;;;16.13;13.60;;;19.50;99.90;;;;;;5048913;28;20181;-83
2022/08/26 05:03:24;;;;;;;15.82;12.55;;;19.60;99.90;;;;;;5053858;28;20164;-82
2022/08/26 05:05:50;;;;;;;20.02;13.82;;;19.60;99.90;;;;;;5045071;28;20176;-84
2022/08/26 05:08:17;;;;;;;17.77;13.45;;;19.60;99.90;;;;;;5052235;28;20233;-82
2022/08/26 05:10:50;;;;;;;19.80;13.80;;;19.60;99.90;;;;;;5045653;28;20181;-84
2022/08/26 05:13:18;;;;;;;17.88;13.13;;;19.60;99.90;;;;;;5038471;28;20223;-83
2022/08/26 05:15:45;;;;;;;15.90;13.05;;;19.70;99.90;;;;;;5049949;28;20212;-81
2022/08/26 05:18:12;;;;;;;19.40;12.20;;;19.60;99.90;;;;;;5046725;28;20196;-81
2022/08/26 05:20:44;;;;;;;15.95;12.98;;;19.70;99.90;;;;;;5049008;28;20211;-79
2022/08/26 05:23:10;;;;;;;14.75;12.48;;;19.70;99.90;;;;;;5036153;28;20172;-79
2022/08/26 05:25:39;;;;;;;18.95;12.75;;;19.80;99.90;;;;;;5038027;28;20264;-78
2022/08/26 05:28:05;;;;;;;16.05;11.95;;;19.80;99.90;;;;;;5042722;28;20206;-78
2022/08/26 05:30:31;;;;;;;19.67;13.30;;;19.90;99.90;;;;;;5044471;28;20258;-79
2022/08/26 05:32:57;;;;;;;14.43;12.60;;;19.90;99.90;;;;;;5039108;28;20225;-79
2022/08/26 05:35:22;;;;;;;18.50;12.27;;;20.00;99.90;;;;;;5039367;28;20192;-78
2022/08/26 05:37:48;;;;;;;14.32;12.13;;;19.90;99.90;;;;;;5045221;28;20586;-78
2022/08/26 05:40:14;;;;;;;13.30;11.63;;;20.00;99.90;;;;;;5039306;28;20204;-79
2022/08/26 05:42:40;;;;;;;16.60;11.75;;;20.10;99.90;;;;;;5021986;28;20178;-78
2022/08/26 05:45:07;;;;;;;15.40;12.35;;;20.20;99.90;;;;;;5043348;28;20195;-77
2022/08/26 05:47:33;;;;;;;17.40;12.43;;;20.30;99.90;;;;;;5031240;28;20663;-78
2022/08/26 05:49:59;;;;;;;13.63;11.50;;;20.30;99.90;;;;;;5043999;28;20190;-78
2022/08/26 05:52:25;;;;;;;18.33;12.70;;;20.40;99.90;;;;;;5032070;28;20226;-78
2022/08/26 05:54:51;;;;;;;18.08;13.70;;;20.40;99.90;;;;;;5047577;28;20290;-78
2022/08/26 05:57:16;;;;;;;19.02;12.02;;;20.50;99.90;;;;;;5042568;28;20193;-78
2022/08/26 05:59:42;;;;;;;14.43;11.50;;;20.50;99.90;;;;;;5042382;28;20180;-78
2022/08/26 06:02:08;;;;;;;16.48;13.02;;;20.60;99.90;;;;;;5048089;28;20172;-78
2022/08/26 06:04:34;;;;;;;15.98;12.73;;;20.70;99.90;;;;;;5030075;28;20177;-77
2022/08/26 06:07:00;;;;;;;15.60;12.82;;;20.70;99.90;;;;;;5037531;28;20669;-77
2022/08/26 06:09:26;;;;;;;17.60;13.15;;;20.80;99.90;;;;;;5040904;28;20169;-77
2022/08/26 06:11:51;;;;;;;18.67;13.40;;;20.90;99.90;;;;;;5040409;28;20191;-78
2022/08/26 06:14:17;;;;;;;15.80;13.45;;;21.00;99.90;;;;;;5033025;28;20196;-78
2022/08/26 06:16:43;;;;;;;16.27;13.20;;;21.10;99.90;;;;;;5035356;28;20176;-78
2022/08/26 06:19:11;;;;;;;17.58;13.43;;;21.10;99.90;;;;;;5043776;28;20188;-78
2022/08/26 06:21:40;;;;;;;19.10;13.90;;;21.10;99.90;;;;;;5046577;28;20188;-77
2022/08/26 06:27:00;;;;;;;17.48;13.40;;;21.20;99.90;;;;;;5030383;28;20279;-77
2022/08/26 06:29:26;;;;;;;14.18;12.32;;;21.20;99.90;;;;;;5033315;28;20550;-77
2022/08/26 06:31:54;;;;;;;17.27;13.50;;;21.40;99.90;;;;;;5032408;28;20198;-78
2022/08/26 06:34:19;;;;;;;16.55;12.90;;;21.50;99.90;;;;;;5028761;28;20575;-78
2022/08/26 06:36:46;;;;;;;17.25;12.75;;;21.60;99.90;;;;;;5032616;28;20180;-78
2022/08/26 06:39:14;;;;;;;14.60;13.10;;;21.60;99.90;;;;;;5035852;28;20673;-77
2022/08/26 06:41:42;;;;;;;15.88;12.25;;;21.80;99.90;;;;;;5034216;28;20226;-77
2022/08/26 06:44:08;;;;;;;15.02;12.73;;;22.00;99.90;;;;;;5031352;28;20176;-74
2022/08/26 06:46:33;;;;;;;19.38;12.95;;;22.10;99.90;;;;;;5030036;28;20242;-75
2022/08/26 06:48:59;;;;;;;15.95;12.05;;;22.20;99.90;;;;;;5036602;28;20196;-74
2022/08/26 06:51:29;;;;;;;17.73;12.57;;;22.40;99.90;;;;;;5034397;28;20295;-74
2022/08/26 06:53:58;;;;;;;15.40;11.68;;;22.60;99.90;;;;;;5034942;28;20193;-75
2022/08/26 06:56:27;;;;;;;18.40;12.30;;;22.80;99.90;;;;;;5049146;28;20650;-74
2022/08/26 06:58:53;;;;;;;19.33;12.68;;;23.10;99.90;;;;;;5039033;28;20215;-74
2022/08/26 07:01:33;;;;;;;18.65;11.45;;;23.30;99.90;;;;;;5042904;28;20250;-74
2022/08/26 07:04:02;;;;;;;19.75;12.40;;;23.40;99.90;;;;;;5032790;28;20181;-74
2022/08/26 07:06:28;;;;;;;18.20;12.63;;;23.60;99.90;;;;;;5040804;28;20180;-75
2022/08/26 07:09:01;;;;;;;16.35;11.70;;;23.80;99.90;;;;;;5037993;28;20287;-74
2022/08/26 07:11:27;;;;;;;20.27;12.00;;;23.90;99.90;;;;;;5045117;28;20198;-72
2022/08/26 07:13:53;;;;;;;17.77;12.23;;;24.00;99.90;;;;;;5040708;28;20275;-73
2022/08/26 07:16:18;;;;;;;20.15;12.63;;;24.10;99.90;;;;;;5034375;28;20282;-74
2022/08/26 07:18:45;;;;;;;18.48;12.65;;;24.20;99.90;;;;;;5045138;28;20286;-73
2022/08/26 07:21:14;;;;;;;15.25;11.88;;;24.30;99.90;;;;;;5035461;28;20168;-73
2022/08/26 07:23:40;;;;;;;17.02;10.55;;;24.20;99.90;;;;;;5028928;28;20177;-72
2022/08/26 07:26:07;;;;;;;13.98;11.30;;;24.20;99.90;;;;;;5028449;28;20184;-73
2022/08/26 07:28:33;;;;;;;19.25;11.13;;;24.40;99.90;;;;;;5025091;28;20200;-72
2022/08/26 07:31:04;;;;;;;12.75;9.70;;;24.40;99.90;;;;;;5026220;28;20215;-72
2022/08/26 07:33:30;;;;;;;16.35;10.90;;;24.60;99.90;;;;;;5031302;28;20260;-72
2022/08/26 07:35:56;;;;;;;15.95;10.68;;;24.70;99.90;;;;;;5032379;28;20284;-74
2022/08/26 07:38:21;;;;;;;16.13;12.48;;;24.90;99.90;;;;;;5031750;28;20666;-72
2022/08/26 07:40:47;;;;;;;16.80;12.30;;;25.10;99.90;;;;;;5032784;28;20662;-74
2022/08/26 07:43:13;;;;;;;15.65;11.57;;;25.20;99.90;;;;;;5031343;28;20196;-72
2022/08/26 07:45:38;;;;;;;16.83;11.23;;;25.20;99.90;;;;;;5030645;28;20659;-72
2022/08/26 07:48:04;;;;;;;18.77;10.70;;;25.30;99.90;;;;;;5033578;28;20283;-72
2022/08/26 07:50:30;;;;;;;14.80;11.10;;;25.40;99.90;;;;;;5028921;28;20181;-72
2022/08/26 07:52:57;;;;;;;17.80;10.88;;;25.50;99.90;;;;;;5032257;28;20185;-73
2022/08/26 07:55:22;;;;;;;15.77;10.82;;;25.70;99.90;;;;;;5041149;28;20203;-70
2022/08/26 07:57:48;;;;;;;11.90;9.85;;;25.80;99.90;;;;;;5038242;28;20283;-70
2022/08/26 08:00:15;;;;;;;16.00;10.98;;;25.90;99.90;;;;;;5035760;28;20171;-70
2022/08/26 08:02:43;;;;;;;10.95;9.82;;;26.10;99.90;;;;;;5035741;28;20555;-71
2022/08/26 08:05:11;;;;;;;14.88;10.48;;;26.30;99.90;;;;;;5047430;28;20176;-70
2022/08/26 08:07:37;;;;;;;14.68;9.65;;;26.50;99.90;;;;;;5033530;28;20240;-70
2022/08/26 08:10:04;;;;;;;15.57;10.77;;;26.80;99.90;;;;;;5042513;28;20173;-70
2022/08/26 08:12:30;;;;;;;16.23;10.05;;;27.10;99.90;;;;;;5042065;28;20212;-70
2022/08/26 08:14:55;;;;;;;11.98;8.82;;;27.30;99.90;;;;;;5034738;28;20231;-70
2022/08/26 08:17:21;;;;;;;12.25;8.30;;;27.60;99.90;;;;;;5031470;28;20260;-70
2022/08/26 08:19:47;;;;;;;12.70;10.20;;;27.90;99.90;;;;;;5033787;28;20173;-70
2022/08/26 08:22:16;;;;;;;18.63;9.35;;;28.20;99.90;;;;;;5024816;28;20183;-70
2022/08/26 08:24:42;;;;;;;11.82;9.38;;;28.70;99.90;;;;;;5034971;28;20674;-70
2022/08/26 08:27:08;;;;;;;13.20;8.15;;;29.30;99.90;;;;;;5030989;28;20192;-70
2022/08/26 08:29:36;;;;;;;12.30;9.10;;;29.50;99.90;;;;;;5043124;28;20214;-71
2022/08/26 08:32:02;;;;;;;12.50;8.35;;;29.70;99.90;;;;;;5038144;28;20181;-70
2022/08/26 08:34:28;;;;;;;11.65;8.68;;;30.00;99.90;;;;;;5038436;28;20654;-70
2022/08/26 08:36:54;;;;;;;14.52;8.68;;;30.00;99.90;;;;;;5031372;28;20180;-71
2022/08/26 08:39:21;;;;;;;11.90;8.27;;;29.90;99.90;;;;;;5037029;28;20195;-71
2022/08/26 08:42:22;;;;;;;9.57;8.57;;;29.90;99.90;;;;;;5032338;28;20172;-70
2022/08/26 08:44:50;;;;;;;9.63;8.38;;;29.60;99.90;;;;;;5040474;28;20174;-68
2022/08/26 08:47:28;;;;;;;10.35;7.68;;;29.60;99.90;;;;;;5042838;28;20195;-68
2022/08/26 08:49:59;;;;;;;11.80;8.23;;;29.80;99.90;;;;;;5038853;28;20179;-68
2022/08/26 08:52:34;;;;;;;10.85;7.53;;;30.30;99.90;;;;;;5029308;28;20756;-67
2022/08/26 08:55:02;;;;;;;11.43;7.55;;;30.50;99.90;;;;;;5034914;28;20659;-67
2022/08/26 08:57:54;;;;;;;10.60;7.90;;;30.60;99.90;;;;;;5036708;28;20200;-69
2022/08/26 09:00:23;;;;;;;8.60;7.43;;;30.80;99.30;;;;;;5038371;28;20321;-71
2022/08/26 09:02:59;;;;;;;9.38;7.97;;;31.00;98.90;;;;;;5035285;28;20639;-70
2022/08/26 09:05:31;;;;;;;9.02;7.68;;;31.20;97.70;;;;;;5033101;28;20188;-70
2022/08/26 09:08:03;;;;;;;11.18;8.02;;;31.10;98.00;;;;;;5029461;28;20226;-70
2022/08/26 09:10:40;;;;;;;12.02;7.20;;;31.40;97.40;;;;;;5030666;28;20210;-71
2022/08/26 09:13:11;;;;;;;8.65;7.07;;;31.80;96.90;;;;;;5038737;28;20655;-70
2022/08/26 09:16:06;;;;;;;7.93;7.15;;;33.50;93.30;;;;;;5038441;28;20190;-70
2022/08/26 09:19:11;;;;;;;8.00;6.13;;;35.40;87.50;;;;;;5019840;28;20742;-71
2022/08/26 09:21:37;;;;;;;7.60;6.68;;;37.70;74.70;;;;;;5031261;28;20179;-70
2022/08/26 09:24:03;;;;;;;10.05;6.68;;;38.90;67.00;;;;;;5031747;28;20188;-70
2022/08/26 09:26:46;;;;;;;13.98;6.97;;;39.70;62.70;;;;;;5035676;28;20263;-72
2022/08/26 09:29:21;;;;;;;12.73;6.07;;;40.00;61.40;;;;;;5041986;28;20201;-69
2022/08/26 09:31:46;;;;;;;6.38;4.93;;;39.60;61.60;;;;;;5037856;28;20183;-69
2022/08/26 09:34:24;;;;;;;8.07;5.25;;;39.10;59.70;;;;;;5024130;28;20672;-67
2022/08/26 09:36:54;;;;;;;7.60;5.60;;;38.60;60.70;;;;;;5032769;28;20219;-67
2022/08/26 09:39:37;;;;;;;7.90;5.63;;;38.30;61.80;;;;;;5023789;28;20179;-67
2022/08/26 09:42:22;;;;;;;8.90;6.15;;;37.80;62.00;;;;;;5037783;28;20635;-68
2022/08/26 09:44:59;;;;;;;9.40;5.97;;;37.90;61.40;;;;;;5041564;28;20564;-67
2022/08/26 09:47:29;;;;;;;9.65;5.93;;;37.40;62.80;;;;;;5023986;28;20210;-68
2022/08/26 09:50:08;;;;;;;6.07;5.22;;;38.10;61.10;;;;;;5031665;28;20180;-68
2022/08/26 09:52:34;;;;;;;11.45;6.25;;;38.80;59.40;;;;;;5023428;28;20184;-67
2022/08/26 09:55:09;;;;;;;9.57;6.07;;;40.00;57.60;;;;;;5027034;28;20195;-68
2022/08/26 09:58:02;;;;;;;5.88;5.13;;;41.10;55.50;;;;;;5026057;28;20687;-67
2022/08/26 10:00:37;;;;;;;8.90;6.60;;;42.40;53.40;;;;;;5030957;28;20219;-69
2022/08/26 10:03:10;;;;;;;11.52;5.95;;;43.40;51.60;;;;;;5044270;28;20203;-70
2022/08/26 10:05:46;;;;;;;9.63;6.38;;;43.60;50.70;;;;;;5028504;28;20263;-71
2022/08/26 10:08:34;;;;;;;10.85;7.00;;;42.50;50.30;;;;;;5034592;28;20238;-67
2022/08/26 10:11:09;;;;;;;11.30;5.93;;;40.50;54.00;;;;;;5033880;28;20238;-67
2022/08/26 10:13:42;;;;;;;10.90;6.10;;;38.90;56.20;;;;;;5027570;28;20283;-68
2022/08/26 10:16:19;;;;;;;12.63;6.50;;;38.00;56.70;;;;;;5024296;28;20258;-68
2022/08/26 10:18:54;;;;;;;8.07;6.15;;;36.50;59.50;;;;;;5030361;28;20188;-68
2022/08/26 10:21:28;;;;;;;14.70;7.05;;;35.00;65.10;;;;;;5027730;28;20428;-70
2022/08/26 10:23:58;;;;;;;7.38;6.20;;;34.00;68.00;;;;;;5037036;28;20175;-67
2022/08/26 10:26:37;;;;;;;10.43;6.20;;;33.80;71.00;;;;;;5035979;28;20188;-70
2022/08/26 10:29:18;;;;;;;10.00;6.63;;;34.20;71.30;;;;;;5038637;28;20219;-71
2022/08/26 10:31:44;;;;;;;11.13;6.88;;;34.60;69.90;;;;;;5038265;28;20271;-70
2022/08/26 10:34:11;;;;;;;13.02;6.22;;;35.00;71.20;;;;;;5021402;28;20263;-71
2022/08/26 10:36:50;;;;;;;11.40;7.13;;;36.40;67.10;;;;;;5029690;28;20204;-75
2022/08/26 10:39:39;;;;;;;9.07;6.10;;;38.00;63.40;;;;;;5032393;28;20288;-72
2022/08/26 10:42:16;;;;;;;9.88;6.45;;;39.80;59.60;;;;;;5036572;28;20241;-72
2022/08/26 10:44:43;;;;;;;13.35;6.72;;;41.30;56.20;;;;;;5045029;28;20539;-72
2022/08/26 10:47:18;;;;;;;11.70;6.03;;;41.30;55.10;;;;;;5038654;28;20172;-70
2022/08/26 10:49:48;;;;;;;8.80;6.40;;;39.70;57.30;;;;;;5026781;28;20169;-73
2022/08/26 10:52:38;;;;;;;9.65;6.57;;;39.10;58.10;;;;;;5032602;28;20180;-73
2022/08/26 10:55:19;;;;;;;11.65;6.10;;;39.10;58.20;;;;;;5039860;28;20192;-73
2022/08/26 10:58:39;;;;;;;12.40;6.18;;;39.60;57.70;;;;;;5031472;28;20192;-73
2022/08/26 11:04:19;;;;;;;8.57;6.10;;;40.00;56.10;;;;;;5042119;28;20271;-73
2022/08/26 11:06:45;;;;;;;11.32;6.45;;;39.10;57.20;;;;;;5053742;28;20251;-73
2022/08/26 11:09:31;;;;;;;12.20;6.72;;;38.20;58.70;;;;;;5039062;28;20249;-73
2022/08/26 11:11:57;;;;;;;8.13;5.95;;;37.30;60.60;;;;;;5039249;28;20176;-73
2022/08/26 11:14:23;;;;;;;8.82;6.55;;;36.20;64.30;;;;;;5024283;28;20188;-73
2022/08/26 11:16:51;;;;;;;10.63;6.85;;;35.20;65.80;;;;;;5016876;28;20204;-71
2022/08/26 11:19:38;;;;;;;8.63;6.25;;;35.00;67.70;;;;;;5024353;28;20226;-72
2022/08/26 11:22:08;;;;;;;8.45;5.93;;;35.10;67.10;;;;;;5040871;28;20254;-74
2022/08/26 11:24:51;;;;;;;12.85;6.35;;;35.80;66.10;;;;;;5033914;28;20195;-74
2022/08/26 11:27:40;;;;;;;11.57;6.93;;;36.80;63.60;;;;;;5024681;28;20561;-74
2022/08/26 11:30:12;;;;;;;10.02;6.43;;;37.50;62.70;;;;;;5033024;28;20179;-74
2022/08/26 11:32:37;;;;;;;13.48;6.15;;;37.60;61.00;;;;;;5034491;28;20176;-75
2022/08/26 11:35:10;;;;;;;9.13;5.82;;;38.40;59.50;;;;;;5042730;28;20282;-74
2022/08/26 11:37:49;;;;;;;11.35;6.75;;;39.30;57.60;;;;;;5039626;28;20205;-75
2022/08/26 11:40:20;;;;;;;11.27;8.63;;;38.60;58.60;;;;;;5017473;28;20176;-75
2022/08/26 11:42:54;;;;;;;9.73;5.35;;;37.90;59.80;;;;;;5028346;28;20307;-75
2022/08/26 11:45:47;;;;;;;5.93;4.45;;;37.00;59.00;;;;;;5030761;28;20275;-75
2022/08/26 11:48:17;;;;;;;11.27;4.95;;;35.40;59.70;;;;;;5025053;28;20291;-75
2022/08/26 11:50:54;;;;;;;10.40;5.63;;;33.80;62.50;;;;;;5021958;28;20607;-74
2022/08/26 11:53:21;;;;;;;8.65;5.13;;;32.30;67.80;;;;;;5016826;28;20417;-73
2022/08/26 11:55:48;;;;;;;10.45;5.55;;;31.20;72.00;;;;;;5015077;28;20200;-74
2022/08/26 11:58:14;;;;;;;11.10;6.00;;;30.40;75.80;;;;;;5013055;28;20262;-73
2022/08/26 12:00:43;;;;;;;10.23;5.45;;;29.70;79.50;;;;;;5026056;28;20172;-71
2022/08/26 12:03:13;;;;;;;9.57;5.60;;;29.00;82.70;;;;;;5034436;28;20258;-73
2022/08/26 12:05:43;;;;;;;10.38;6.32;;;28.10;86.80;;;;;;5025818;28;20231;-71
2022/08/26 12:08:15;;;;;;;9.48;5.88;;;27.50;90.30;;;;;;5041744;28;20252;-71
2022/08/26 12:10:41;;;;;;;12.63;5.57;;;27.00;92.70;;;;;;5043436;28;20188;-73
2022/08/26 12:13:16;;;;;;;12.65;5.82;;;26.70;93.60;;;;;;5043300;28;20192;-74
2022/08/26 12:15:55;;;;;;;19.45;7.35;;;26.10;96.70;;;;;;5033234;28;20295;-70
2022/08/26 12:18:30;;;;;;;22.92;10.57;;;25.50;99.90;;;;;;5022218;28;20208;-73
2022/08/26 12:21:13;;;;;;;13.70;10.15;;;24.50;99.90;;;;;;5031464;28;20175;-73
2022/08/26 12:23:48;;;;;;;21.23;10.43;;;23.70;99.90;;;;;;5018964;28;20647;-73
2022/08/26 12:26:29;;;;;;;22.95;13.25;;;23.00;99.90;;;;;;5016559;28;20191;-72
2022/08/26 12:29:05;;;;;;;17.15;10.98;;;22.70;99.90;;;;;;5020538;28;20212;-73
2022/08/26 12:31:42;;;;;;;17.48;14.57;;;22.20;99.90;;;;;;5030518;28;20276;-73
2022/08/26 12:34:15;;;;;;;16.63;11.68;;;22.10;99.90;;;;;;5018823;28;20274;-73
2022/08/26 12:36:59;;;;;;;18.15;13.38;;;21.90;99.90;;;;;;5029421;28;20199;-72
2022/08/26 12:39:31;;;;;;;17.30;12.55;;;21.80;99.90;;;;;;5020548;28;20177;-72
2022/08/26 12:41:59;;;;;;;15.63;11.90;;;21.90;99.90;;;;;;5025196;28;20632;-72
2022/08/26 12:44:36;;;;;;;16.45;11.07;;;21.80;99.90;;;;;;5023574;28;20173;-72
2022/08/26 12:47:37;;;;;;;16.13;11.18;;;21.90;99.90;;;;;;5022977;28;20252;-74
2022/08/26 12:50:22;;;;;;;17.35;11.85;;;21.90;99.90;;;;;;5029738;28;20187;-75
2022/08/26 12:52:55;;;;;;;16.60;11.02;;;21.90;99.90;;;;;;5027306;28;20177;-74